Time;durP1;ratioP1;P1;durP2;ratioP2;P2;SDS_P1;SDS_P2;PMS_P1;PMS_P2;Temp;Humidity;BMP_temperature;BMP_pressure;BME280_temperature;BME280_humidity;BME280_pressure;Samples;Min_cycle;Max_cycle;Signal;HPM_P1;HPM_P2
2022/01/28 00:00:02;;;;;;;15.55;2.53;;;4.50;99.90;;;;;;4782069;29;20095;-68
2022/01/28 00:02:48;;;;;;;17.42;2.50;;;4.50;99.90;;;;;;4786027;29;20134;-69
2022/01/28 00:05:17;;;;;;;15.18;2.50;;;4.60;99.90;;;;;;4799820;29;20055;-70
2022/01/28 00:07:43;;;;;;;14.45;2.38;;;4.60;99.90;;;;;;4780304;29;20130;-69
2022/01/28 00:10:08;;;;;;;18.58;3.70;;;4.70;99.90;;;;;;4784363;30;20126;-69
2022/01/28 00:12:38;;;;;;;18.25;2.38;;;4.60;99.90;;;;;;4785625;29;20441;-70
2022/01/28 00:15:17;;;;;;;16.90;2.47;;;4.70;99.90;;;;;;4785640;30;20139;-69
2022/01/28 00:36:45;;;;;;;17.10;3.08;;;4.30;99.90;;;;;;4784328;29;20132;-69
2022/01/28 00:39:11;;;;;;;22.98;3.35;;;4.30;99.90;;;;;;4786164;29;20058;-69
2022/01/28 00:41:37;;;;;;;25.85;3.17;;;4.30;99.90;;;;;;4786199;29;20047;-69
2022/01/28 00:44:03;;;;;;;24.00;3.55;;;4.30;99.90;;;;;;4786593;29;20043;-69
2022/01/28 00:46:28;;;;;;;20.75;3.33;;;4.30;99.90;;;;;;4786771;29;20043;-69
2022/01/28 00:48:56;;;;;;;24.25;3.25;;;4.50;99.90;;;;;;4785610;29;20074;-69
2022/01/28 00:51:22;;;;;;;20.00;3.00;;;4.40;99.90;;;;;;4785153;29;20421;-69
2022/01/28 00:53:48;;;;;;;21.08;3.35;;;4.40;99.90;;;;;;4786316;29;20055;-69
2022/01/28 00:56:13;;;;;;;23.77;3.72;;;4.50;99.90;;;;;;4785666;30;20416;-69
2022/01/28 00:58:39;;;;;;;14.65;2.67;;;4.60;99.90;;;;;;4785476;29;20492;-70
2022/01/28 01:01:05;;;;;;;27.25;3.15;;;4.60;99.90;;;;;;4788758;29;20079;-69
2022/01/28 01:03:31;;;;;;;19.80;3.38;;;4.70;99.90;;;;;;4788861;29;20409;-69
2022/01/28 01:05:56;;;;;;;19.05;3.30;;;5.00;99.90;;;;;;4787981;29;20059;-69
2022/01/28 01:08:22;;;;;;;17.73;3.00;;;4.80;99.90;;;;;;4790178;29;20047;-69
2022/01/28 01:10:50;;;;;;;24.55;3.22;;;4.80;99.90;;;;;;4789713;29;20560;-69
2022/01/28 01:13:16;;;;;;;24.15;3.38;;;4.80;99.90;;;;;;4772059;30;20043;-69
2022/01/28 01:15:45;;;;;;;16.33;3.38;;;4.90;99.90;;;;;;4788119;29;20103;-69
2022/01/28 01:18:19;;;;;;;17.52;2.72;;;4.80;99.90;;;;;;4788129;29;20051;-69
2022/01/28 01:23:15;;;;;;;24.65;2.78;;;4.90;99.90;;;;;;4789383;29;20126;-69
2022/01/28 01:25:51;;;;;;;16.90;3.22;;;4.70;99.90;;;;;;4788059;29;20055;-69
2022/01/28 01:28:20;;;;;;;18.08;2.60;;;4.80;99.90;;;;;;4784943;29;20425;-69
2022/01/28 01:30:47;;;;;;;19.45;3.65;;;4.70;99.90;;;;;;4788733;29;20051;-69
2022/01/28 01:33:14;;;;;;;25.50;4.47;;;4.60;99.90;;;;;;4788011;29;20055;-69
2022/01/28 01:35:40;;;;;;;22.88;3.45;;;4.50;99.90;;;;;;4788262;29;20188;-69
2022/01/28 01:38:08;;;;;;;21.27;3.63;;;4.50;99.90;;;;;;4785019;29;20051;-69
2022/01/28 01:54:21;;;;;;;21.08;3.17;;;4.70;99.90;;;;;;4789104;29;20508;-69
2022/01/28 01:56:48;;;;;;;20.33;4.15;;;4.80;99.90;;;;;;4789223;29;20048;-69
2022/01/28 01:59:14;;;;;;;20.98;3.65;;;4.60;99.90;;;;;;4789178;29;20096;-69
2022/01/28 02:01:39;;;;;;;23.55;3.97;;;4.70;99.90;;;;;;4787841;29;20435;-69
2022/01/28 02:04:06;;;;;;;22.23;3.63;;;4.70;99.90;;;;;;4788735;29;20043;-69
2022/01/28 02:06:32;;;;;;;20.58;3.10;;;4.70;99.90;;;;;;4772527;30;20052;-69
2022/01/28 02:08:59;;;;;;;24.20;3.67;;;4.70;99.90;;;;;;4787844;29;20047;-69
2022/01/28 02:11:25;;;;;;;20.50;3.25;;;4.70;99.90;;;;;;4787127;29;20557;-69
2022/01/28 02:13:52;;;;;;;23.13;3.30;;;4.70;99.90;;;;;;4787152;29;20134;-69
2022/01/28 02:16:18;;;;;;;23.90;3.58;;;4.70;99.90;;;;;;4789469;29;20047;-69
2022/01/28 02:18:44;;;;;;;25.70;4.13;;;4.70;99.90;;;;;;4786849;29;20059;-69
2022/01/28 02:21:13;;;;;;;30.45;3.63;;;4.70;99.90;;;;;;4784326;29;20386;-69
2022/01/28 02:23:40;;;;;;;22.38;3.72;;;4.60;99.90;;;;;;4784218;29;20083;-69
2022/01/28 02:26:07;;;;;;;21.38;3.50;;;4.80;99.90;;;;;;4788491;29;20047;-69
2022/01/28 02:28:37;;;;;;;21.92;3.75;;;4.50;99.90;;;;;;4787184;30;20063;-69
2022/01/28 02:31:06;;;;;;;21.67;3.08;;;4.50;99.90;;;;;;4787086;29;20087;-69
2022/01/28 02:33:32;;;;;;;17.95;3.10;;;4.50;99.90;;;;;;4788384;29;20062;-69
2022/01/28 02:36:04;;;;;;;19.15;3.05;;;4.40;99.90;;;;;;4788726;29;20043;-69
2022/01/28 02:38:31;;;;;;;17.83;2.97;;;4.40;99.90;;;;;;4787561;29;20051;-69
2022/01/28 02:40:59;;;;;;;23.13;4.00;;;4.40;99.90;;;;;;4787051;29;20051;-69
2022/01/28 02:46:05;;;;;;;17.10;2.47;;;4.40;99.90;;;;;;4786053;29;20052;-69
2022/01/28 02:48:33;;;;;;;15.32;2.38;;;4.50;99.90;;;;;;4788139;29;20047;-69
2022/01/28 02:53:38;;;;;;;14.18;2.63;;;4.50;99.90;;;;;;4787110;29;20147;-69
2022/01/28 02:56:12;;;;;;;20.60;2.83;;;4.50;99.90;;;;;;4788496;29;20131;-69
2022/01/28 02:58:38;;;;;;;16.70;2.83;;;4.60;99.90;;;;;;4785707;29;20047;-69
2022/01/28 03:01:04;;;;;;;15.40;2.55;;;4.60;99.90;;;;;;4788280;29;20047;-69
2022/01/28 03:03:30;;;;;;;21.00;3.63;;;4.60;99.90;;;;;;4771698;30;20052;-70
2022/01/28 03:05:56;;;;;;;21.00;2.80;;;4.70;99.90;;;;;;4786647;29;20062;-69
2022/01/28 03:08:25;;;;;;;12.95;2.70;;;4.70;99.90;;;;;;4786786;29;20581;-69
2022/01/28 03:13:34;;;;;;;19.17;2.67;;;4.70;99.90;;;;;;4786337;29;20069;-69
2022/01/28 03:16:12;;;;;;;16.13;3.65;;;4.80;99.90;;;;;;4783514;29;20052;-69
2022/01/28 03:18:52;;;;;;;18.70;2.75;;;4.80;99.90;;;;;;4788123;29;20381;-69
2022/01/28 03:21:22;;;;;;;19.23;3.03;;;4.80;99.90;;;;;;4787098;29;20470;-69
2022/01/28 03:23:49;;;;;;;15.18;2.55;;;4.90;99.90;;;;;;4781085;29;20058;-69
2022/01/28 03:26:15;;;;;;;17.75;3.17;;;4.70;99.90;;;;;;4785536;29;20043;-69
2022/01/28 03:28:41;;;;;;;27.92;3.45;;;4.70;99.90;;;;;;4786962;29;20078;-69
2022/01/28 03:31:06;;;;;;;10.77;2.50;;;4.70;99.90;;;;;;4786198;29;20056;-69
2022/01/28 03:33:32;;;;;;;21.05;3.25;;;4.70;99.90;;;;;;4787047;29;20389;-69
2022/01/28 03:36:01;;;;;;;24.30;2.95;;;5.00;99.90;;;;;;4786848;29;20516;-69
2022/01/28 03:38:27;;;;;;;22.02;2.97;;;5.00;99.90;;;;;;4787428;29;20055;-69
2022/01/28 03:40:55;;;;;;;22.15;3.40;;;4.80;99.90;;;;;;4787427;29;20073;-69
2022/01/28 03:43:21;;;;;;;14.82;2.50;;;4.80;99.90;;;;;;4786722;29;20051;-69
2022/01/28 03:45:46;;;;;;;18.02;2.75;;;4.80;99.90;;;;;;4787269;29;21781;-69
2022/01/28 03:48:12;;;;;;;15.25;2.90;;;4.90;99.90;;;;;;4787277;29;20477;-68
2022/01/28 03:50:38;;;;;;;16.67;2.50;;;4.90;99.90;;;;;;4785512;29;20382;-69
2022/01/28 03:53:05;;;;;;;14.73;2.42;;;4.90;99.90;;;;;;4786839;29;20079;-69
2022/01/28 03:55:31;;;;;;;19.48;2.90;;;4.90;99.90;;;;;;4787413;29;20050;-69
2022/01/28 03:57:57;;;;;;;22.08;3.20;;;4.90;99.90;;;;;;4787150;29;20047;-69
2022/01/28 04:00:28;;;;;;;16.75;2.80;;;4.90;99.90;;;;;;4786486;29;20549;-68
2022/01/28 04:03:04;;;;;;;18.30;2.80;;;4.90;99.90;;;;;;4785378;29;20454;-69
2022/01/28 04:13:31;;;;;;;13.95;2.67;;;4.70;99.90;;;;;;4785976;29;20066;-68
2022/01/28 04:18:23;;;;;;;24.63;3.92;;;4.70;99.90;;;;;;4786716;29;20398;-69
2022/01/28 04:20:48;;;;;;;19.58;3.17;;;4.80;99.90;;;;;;4787236;29;20413;-69
2022/01/28 04:23:14;;;;;;;23.20;3.38;;;4.80;99.90;;;;;;4785375;29;20393;-68
2022/01/28 04:25:40;;;;;;;25.63;3.53;;;4.80;99.90;;;;;;4787053;29;20456;-68
2022/01/28 04:28:06;;;;;;;19.38;3.00;;;4.80;99.90;;;;;;4786647;29;20146;-68
2022/01/28 04:30:31;;;;;;;22.75;3.28;;;4.80;99.90;;;;;;4786728;29;20053;-68
2022/01/28 04:32:57;;;;;;;17.23;2.50;;;4.70;99.90;;;;;;4786288;29;20047;-69
2022/01/28 04:35:23;;;;;;;16.85;3.03;;;4.60;99.90;;;;;;4784449;29;20063;-69
2022/01/28 04:38:11;;;;;;;17.17;2.92;;;4.60;99.90;;;;;;4786501;29;20050;-68
2022/01/28 04:40:45;;;;;;;22.25;2.80;;;4.50;99.90;;;;;;4800270;29;20086;-68
2022/01/28 04:43:24;;;;;;;21.48;3.42;;;4.40;99.90;;;;;;4785144;29;20552;-69
2022/01/28 04:46:06;;;;;;;16.70;2.72;;;4.30;99.90;;;;;;4786343;29;20051;-68
2022/01/28 04:48:40;;;;;;;19.02;3.28;;;4.30;99.90;;;;;;4785029;29;20047;-69
2022/01/28 05:15:12;;;;;;;19.40;2.83;;;4.00;99.90;;;;;;4786182;29;20104;-69
2022/01/28 05:26:02;;;;;;;18.50;2.92;;;4.00;99.90;;;;;;4786505;30;20050;-69
2022/01/28 05:28:28;;;;;;;13.30;2.95;;;4.10;99.90;;;;;;4785407;29;20144;-68
2022/01/28 05:30:54;;;;;;;18.67;3.35;;;4.20;99.90;;;;;;4785199;29;20055;-68
2022/01/28 05:33:20;;;;;;;27.13;3.70;;;4.20;99.90;;;;;;4785349;29;20397;-69
2022/01/28 05:35:46;;;;;;;20.00;3.33;;;4.20;99.90;;;;;;4784380;29;20047;-68
2022/01/28 05:38:12;;;;;;;28.60;3.72;;;4.20;99.90;;;;;;4784687;29;20039;-68
2022/01/28 05:40:37;;;;;;;17.50;3.25;;;4.30;99.90;;;;;;4784772;29;20043;-69
2022/01/28 05:43:03;;;;;;;19.17;2.90;;;4.40;99.90;;;;;;4785915;29;20150;-68
2022/01/28 05:45:29;;;;;;;22.10;3.17;;;4.40;99.90;;;;;;4784803;29;20508;-68
2022/01/28 05:47:57;;;;;;;22.45;3.35;;;4.30;99.90;;;;;;4789168;29;20044;-68
2022/01/28 05:50:23;;;;;;;18.52;2.88;;;4.40;99.90;;;;;;4789056;29;20098;-68
2022/01/28 05:52:48;;;;;;;23.85;3.90;;;4.30;99.90;;;;;;4789424;29;20074;-68
2022/01/28 05:55:14;;;;;;;20.10;3.38;;;4.30;99.90;;;;;;4786986;29;20055;-68
2022/01/28 05:57:40;;;;;;;27.50;3.63;;;4.30;99.90;;;;;;4787598;29;20659;-68
2022/01/28 06:00:06;;;;;;;18.70;3.17;;;4.30;99.90;;;;;;4788888;29;20047;-69
2022/01/28 06:02:32;;;;;;;26.65;3.03;;;4.20;99.90;;;;;;4788611;29;20489;-68
2022/01/28 06:04:57;;;;;;;21.25;3.30;;;4.20;99.90;;;;;;4787156;29;20054;-68
2022/01/28 06:07:23;;;;;;;22.33;3.03;;;4.20;99.90;;;;;;4788674;29;20110;-68
2022/01/28 06:09:49;;;;;;;24.65;3.33;;;4.20;99.90;;;;;;4789209;29;20047;-68
2022/01/28 06:12:15;;;;;;;18.88;3.15;;;4.20;99.90;;;;;;4788524;29;20078;-68
2022/01/28 06:14:41;;;;;;;19.65;2.78;;;4.10;99.90;;;;;;4787854;29;20074;-68
2022/01/28 06:17:07;;;;;;;22.50;3.28;;;4.10;99.90;;;;;;4772338;30;20059;-68
2022/01/28 06:19:32;;;;;;;22.67;3.17;;;4.10;99.90;;;;;;4788397;29;20079;-68
2022/01/28 06:21:58;;;;;;;21.77;3.17;;;4.00;99.90;;;;;;4788718;29;20122;-68
2022/01/28 06:24:24;;;;;;;22.83;3.30;;;4.00;99.90;;;;;;4787793;29;20071;-68
2022/01/28 06:26:49;;;;;;;25.38;3.63;;;3.90;99.90;;;;;;4787247;29;20059;-68
2022/01/28 06:29:15;;;;;;;22.15;3.50;;;3.90;99.90;;;;;;4787857;29;20071;-68
2022/01/28 06:31:42;;;;;;;19.85;3.22;;;3.80;99.90;;;;;;4788367;29;20059;-67
2022/01/28 06:34:08;;;;;;;18.95;3.15;;;3.80;99.90;;;;;;4787618;29;20058;-66
2022/01/28 06:36:35;;;;;;;17.13;3.38;;;3.90;99.90;;;;;;4787437;29;20058;-67
2022/01/28 06:39:01;;;;;;;21.52;2.95;;;3.60;99.90;;;;;;4788282;29;20083;-66
2022/01/28 06:41:27;;;;;;;15.55;2.75;;;3.50;99.90;;;;;;4786245;29;20078;-66
2022/01/28 06:43:52;;;;;;;22.77;3.20;;;3.60;99.90;;;;;;4787456;29;20169;-67
2022/01/28 06:46:18;;;;;;;19.88;3.38;;;4.20;99.90;;;;;;4787751;29;20445;-67
2022/01/28 06:48:44;;;;;;;19.00;3.03;;;3.40;99.90;;;;;;4783986;29;20470;-67
2022/01/28 06:51:09;;;;;;;26.80;3.75;;;3.40;99.90;;;;;;4781450;29;20116;-68
2022/01/28 06:53:35;;;;;;;16.23;3.10;;;3.20;99.90;;;;;;4782191;29;20092;-67
2022/01/28 06:56:01;;;;;;;24.23;3.55;;;3.20;99.90;;;;;;4785895;29;20058;-67
2022/01/28 06:58:26;;;;;;;23.60;3.50;;;3.20;99.90;;;;;;4785720;29;20039;-67
2022/01/28 07:00:52;;;;;;;20.30;3.42;;;3.10;99.90;;;;;;4786033;29;20122;-67
2022/01/28 07:03:18;;;;;;;22.08;3.67;;;3.10;99.90;;;;;;4783465;29;20055;-67
2022/01/28 07:05:44;;;;;;;21.77;3.55;;;3.10;99.90;;;;;;4782988;29;20047;-67
2022/01/28 07:08:10;;;;;;;19.10;3.97;;;3.10;99.90;;;;;;4784362;29;20126;-66
2022/01/28 07:10:36;;;;;;;22.15;4.00;;;3.00;99.90;;;;;;4787669;29;20504;-66
2022/01/28 07:13:02;;;;;;;20.77;4.10;;;3.00;99.90;;;;;;4786037;29;20102;-66
2022/01/28 07:15:29;;;;;;;19.08;3.92;;;2.90;99.90;;;;;;4786775;29;20050;-66
2022/01/28 07:18:03;;;;;;;22.80;4.07;;;2.90;99.90;;;;;;4785705;29;20043;-66
2022/01/28 07:20:33;;;;;;;21.08;3.80;;;2.90;99.90;;;;;;4786878;29;20101;-66
2022/01/28 07:22:59;;;;;;;23.23;4.07;;;2.80;99.90;;;;;;4786818;29;21638;-66
2022/01/28 07:25:25;;;;;;;24.02;4.15;;;2.80;99.90;;;;;;4785440;29;20047;-66
2022/01/28 07:27:51;;;;;;;28.20;3.92;;;2.70;99.90;;;;;;4780670;29;20059;-66
2022/01/28 07:30:17;;;;;;;23.25;4.00;;;2.70;99.90;;;;;;4786213;29;20039;-66
2022/01/28 07:32:43;;;;;;;21.45;4.20;;;2.70;99.90;;;;;;4786687;29;20058;-66
2022/01/28 07:35:09;;;;;;;23.23;4.15;;;2.70;99.90;;;;;;4786132;29;20047;-66
2022/01/28 07:37:36;;;;;;;26.38;4.40;;;2.70;99.90;;;;;;4783938;29;20126;-66
2022/01/28 07:40:03;;;;;;;23.50;4.25;;;2.70;99.90;;;;;;4786797;29;20401;-66
2022/01/28 07:42:33;;;;;;;26.73;4.07;;;2.70;99.90;;;;;;4787058;29;20074;-66
2022/01/28 07:44:59;;;;;;;18.67;3.95;;;2.70;99.90;;;;;;4786067;29;20405;-66
2022/01/28 07:47:24;;;;;;;19.90;4.07;;;2.70;99.90;;;;;;4786416;29;20042;-66
2022/01/28 07:49:50;;;;;;;25.33;4.43;;;2.70;99.90;;;;;;4785506;29;20071;-66
2022/01/28 07:52:16;;;;;;;25.98;4.68;;;2.70;99.90;;;;;;4786177;29;20047;-66
2022/01/28 07:54:47;;;;;;;25.65;3.58;;;2.70;99.90;;;;;;4785252;29;20184;-66
2022/01/28 07:57:13;;;;;;;25.92;4.53;;;2.70;99.90;;;;;;4783587;29;20497;-66
2022/01/28 07:59:39;;;;;;;24.58;4.20;;;2.80;99.90;;;;;;4784698;29;20051;-66
2022/01/28 08:02:05;;;;;;;26.83;3.78;;;2.80;99.90;;;;;;4784809;29;20062;-67
2022/01/28 08:04:30;;;;;;;22.55;4.03;;;2.80;99.90;;;;;;4786269;29;20035;-67
2022/01/28 08:06:56;;;;;;;24.85;4.63;;;2.80;99.90;;;;;;4785611;30;20421;-66
2022/01/28 08:09:22;;;;;;;26.10;4.20;;;2.90;99.90;;;;;;4786207;29;20055;-66
2022/01/28 08:11:47;;;;;;;32.15;5.05;;;3.10;99.90;;;;;;4785590;29;20044;-66
2022/01/28 08:14:14;;;;;;;23.33;3.63;;;3.00;99.90;;;;;;4785043;29;20059;-66
2022/01/28 08:16:40;;;;;;;26.65;3.97;;;3.00;99.90;;;;;;4785749;29;20204;-66
2022/01/28 08:19:05;;;;;;;19.90;4.00;;;3.10;99.90;;;;;;4786655;29;20058;-66
2022/01/28 08:21:31;;;;;;;18.73;3.92;;;3.10;99.90;;;;;;4787169;29;20039;-66
2022/01/28 08:23:57;;;;;;;22.00;3.40;;;3.10;99.90;;;;;;4786226;29;20036;-66
2022/01/28 08:26:23;;;;;;;28.38;4.40;;;3.20;99.90;;;;;;4785519;29;20442;-66
2022/01/28 08:28:49;;;;;;;23.88;4.40;;;3.20;99.90;;;;;;4784555;29;20130;-66
2022/01/28 08:31:15;;;;;;;25.00;4.50;;;3.20;99.90;;;;;;4786152;29;20051;-66
2022/01/28 08:33:41;;;;;;;26.83;4.43;;;3.20;99.90;;;;;;4785466;29;20513;-66
2022/01/28 08:36:07;;;;;;;21.92;4.20;;;3.20;99.90;;;;;;4785719;29;20050;-66
2022/01/28 08:38:38;;;;;;;23.92;4.40;;;3.30;99.90;;;;;;4780151;29;20153;-66
2022/01/28 08:41:04;;;;;;;23.73;4.20;;;3.30;99.90;;;;;;4779212;29;20054;-66
2022/01/28 08:43:31;;;;;;;23.73;4.28;;;3.40;99.90;;;;;;4778943;29;20075;-66
2022/01/28 08:45:57;;;;;;;30.08;4.70;;;3.40;99.90;;;;;;4780939;29;20059;-66
2022/01/28 08:48:23;;;;;;;30.40;4.30;;;3.50;99.90;;;;;;4779003;29;20055;-66
2022/01/28 08:50:48;;;;;;;24.42;4.05;;;3.50;99.90;;;;;;4781000;29;20043;-66
2022/01/28 08:53:14;;;;;;;22.80;4.05;;;3.50;99.90;;;;;;4779937;29;20112;-66
2022/01/28 08:55:40;;;;;;;27.02;4.05;;;3.60;99.90;;;;;;4778649;29;20505;-66
2022/01/28 08:58:10;;;;;;;19.70;3.90;;;3.60;99.90;;;;;;4779182;29;20035;-66
2022/01/28 09:00:35;;;;;;;25.77;4.57;;;3.60;99.90;;;;;;4781197;29;20112;-66
2022/01/28 09:03:01;;;;;;;29.13;5.22;;;3.70;99.90;;;;;;4779852;29;20043;-66
2022/01/28 09:05:28;;;;;;;26.35;5.75;;;3.80;99.90;;;;;;4780298;29;20054;-66
2022/01/28 09:07:54;;;;;;;34.95;7.05;;;3.90;99.90;;;;;;4779518;29;21207;-66
2022/01/28 09:10:25;;;;;;;43.65;7.80;;;4.00;99.90;;;;;;4778549;29;20133;-66
2022/01/28 09:15:25;;;;;;;30.33;8.00;;;4.30;99.90;;;;;;4780240;29;20061;-66
2022/01/28 09:17:52;;;;;;;28.33;7.13;;;4.40;99.90;;;;;;4778867;29;20043;-66
2022/01/28 09:20:17;;;;;;;28.00;7.28;;;4.50;99.90;;;;;;4779559;29;20580;-67
2022/01/28 09:22:43;;;;;;;30.60;6.25;;;4.50;99.90;;;;;;4782674;29;20146;-66
2022/01/28 09:25:09;;;;;;;35.42;7.07;;;4.60;99.90;;;;;;4782745;29;20055;-67
2022/01/28 09:27:34;;;;;;;31.58;6.80;;;4.60;99.90;;;;;;4782527;29;20051;-66
2022/01/28 09:30:00;;;;;;;28.02;6.60;;;4.70;99.90;;;;;;4781536;29;20051;-66
2022/01/28 09:32:26;;;;;;;29.60;5.60;;;4.80;99.90;;;;;;4785795;29;20043;-66
2022/01/28 09:34:52;;;;;;;31.75;6.03;;;4.90;99.90;;;;;;4781983;29;20047;-66
2022/01/28 09:37:18;;;;;;;23.05;5.18;;;5.00;99.90;;;;;;4781413;29;20074;-66
2022/01/28 09:39:45;;;;;;;32.50;6.35;;;5.00;99.90;;;;;;4779360;29;20453;-67
2022/01/28 09:42:14;;;;;;;28.17;5.80;;;5.20;99.90;;;;;;4782296;29;20152;-66
2022/01/28 09:44:40;;;;;;;21.17;5.95;;;5.20;99.90;;;;;;4783394;29;20078;-66
2022/01/28 09:47:06;;;;;;;31.83;6.82;;;5.30;99.90;;;;;;4783626;29;20497;-66
2022/01/28 09:49:32;;;;;;;32.55;7.28;;;5.30;99.90;;;;;;4783015;29;20050;-66
2022/01/28 09:52:01;;;;;;;28.02;6.50;;;5.40;99.90;;;;;;4782683;29;20124;-66
2022/01/28 09:54:27;;;;;;;35.95;6.55;;;5.40;99.90;;;;;;4783706;29;20108;-67
2022/01/28 09:56:52;;;;;;;29.20;6.20;;;5.40;99.90;;;;;;4782711;29;20120;-67
2022/01/28 09:59:18;;;;;;;30.80;5.97;;;5.50;99.90;;;;;;4781909;29;20035;-66
2022/01/28 10:01:51;;;;;;;24.38;5.82;;;5.50;99.90;;;;;;4783131;29;20079;-66
2022/01/28 10:04:18;;;;;;;29.92;6.05;;;5.50;99.90;;;;;;4782386;29;20675;-67
2022/01/28 10:06:44;;;;;;;26.55;5.55;;;5.60;99.90;;;;;;4782392;29;20063;-67
2022/01/28 10:09:12;;;;;;;24.27;5.97;;;5.50;99.90;;;;;;4781588;29;20046;-67
2022/01/28 10:11:39;;;;;;;29.50;5.75;;;5.60;99.90;;;;;;4780959;29;20047;-66
2022/01/28 10:14:22;;;;;;;24.52;5.68;;;5.60;99.90;;;;;;4784055;29;20067;-66
2022/01/28 10:16:59;;;;;;;19.25;5.53;;;5.60;99.90;;;;;;4783529;29;20043;-66
2022/01/28 10:19:38;;;;;;;31.27;5.80;;;5.70;99.90;;;;;;4780125;29;20063;-66
2022/01/28 10:22:17;;;;;;;27.92;5.13;;;5.60;99.90;;;;;;4781629;29;20090;-67
2022/01/28 10:24:43;;;;;;;20.65;5.47;;;5.70;99.90;;;;;;4781723;29;20101;-67
2022/01/28 10:27:09;;;;;;;25.30;4.88;;;5.80;99.90;;;;;;4780819;29;21054;-67
2022/01/28 10:29:35;;;;;;;24.90;5.22;;;5.80;99.90;;;;;;4783582;29;20063;-65
2022/01/28 10:32:08;;;;;;;27.02;4.95;;;5.80;99.90;;;;;;4780538;29;20055;-66
2022/01/28 10:34:39;;;;;;;22.83;5.63;;;5.90;99.90;;;;;;4783014;29;20587;-65
2022/01/28 10:37:15;;;;;;;29.85;6.38;;;5.90;99.90;;;;;;4766362;29;20051;-65
2022/01/28 10:39:47;;;;;;;25.08;5.63;;;6.00;99.90;;;;;;4779683;29;20588;-66
2022/01/28 10:42:15;;;;;;;26.15;6.00;;;6.00;99.90;;;;;;4782023;29;20050;-65
2022/01/28 10:45:00;;;;;;;33.00;6.53;;;6.10;99.90;;;;;;4782819;29;20044;-65
2022/01/28 10:47:37;;;;;;;31.00;5.53;;;6.20;99.90;;;;;;4783477;29;20047;-65
2022/01/28 10:50:37;;;;;;;26.65;5.43;;;6.30;99.90;;;;;;4782064;29;20063;-65
2022/01/28 10:53:20;;;;;;;21.17;5.60;;;6.30;99.90;;;;;;4782892;29;20062;-65
2022/01/28 10:55:54;;;;;;;21.38;4.60;;;6.30;99.90;;;;;;4780798;29;20135;-65
2022/01/28 10:58:22;;;;;;;29.23;5.28;;;6.30;99.90;;;;;;4782727;29;20055;-66
2022/01/28 11:00:50;;;;;;;25.08;4.28;;;6.40;99.90;;;;;;4782482;29;20378;-65
2022/01/28 11:03:18;;;;;;;27.75;5.18;;;6.50;99.90;;;;;;4782440;29;20061;-65
2022/01/28 11:05:45;;;;;;;24.15;4.97;;;6.30;99.90;;;;;;4781785;29;20720;-66
2022/01/28 11:08:12;;;;;;;29.23;5.15;;;6.30;99.90;;;;;;4782897;29;20039;-65
2022/01/28 11:10:40;;;;;;;33.25;6.30;;;6.40;99.90;;;;;;4780888;29;20079;-66
2022/01/28 11:13:05;;;;;;;28.33;5.70;;;6.40;99.90;;;;;;4780292;29;20430;-66
2022/01/28 11:15:32;;;;;;;24.13;5.70;;;6.60;99.90;;;;;;4782217;29;20130;-66
2022/01/28 11:17:59;;;;;;;30.00;6.28;;;6.60;99.90;;;;;;4782605;29;20112;-66
2022/01/28 11:20:38;;;;;;;24.08;5.65;;;6.60;99.90;;;;;;4781778;29;20047;-65
2022/01/28 11:23:42;;;;;;;32.38;6.97;;;6.60;99.90;;;;;;4781582;29;20055;-65
2022/01/28 11:26:22;;;;;;;22.88;5.70;;;6.60;99.90;;;;;;4782639;29;20066;-65
2022/01/28 11:28:51;;;;;;;20.50;4.72;;;6.60;99.90;;;;;;4781571;29;20083;-65
2022/01/28 11:31:46;;;;;;;30.40;5.38;;;6.70;99.90;;;;;;4781078;29;20043;-65
2022/01/28 11:34:29;;;;;;;24.13;4.82;;;6.70;99.90;;;;;;4782393;29;20048;-65
2022/01/28 11:37:17;;;;;;;25.45;4.80;;;6.60;99.90;;;;;;4780278;29;20683;-65
2022/01/28 11:39:46;;;;;;;22.77;3.75;;;6.70;99.90;;;;;;4780082;29;20047;-65
2022/01/28 11:42:18;;;;;;;23.80;4.07;;;6.70;99.90;;;;;;4780979;29;20051;-65
2022/01/28 11:45:01;;;;;;;31.92;6.88;;;6.80;99.90;;;;;;4781292;29;20054;-66
2022/01/28 11:47:29;;;;;;;30.63;6.00;;;6.80;99.90;;;;;;4779072;29;20062;-65
2022/01/28 11:50:05;;;;;;;28.27;5.85;;;6.80;99.90;;;;;;4780695;29;20035;-65
2022/01/28 11:52:51;;;;;;;24.00;4.93;;;6.80;99.90;;;;;;4780725;29;20050;-65
2022/01/28 11:55:26;;;;;;;28.65;5.93;;;6.90;99.90;;;;;;4765034;29;20050;-65
2022/01/28 11:57:52;;;;;;;22.85;5.20;;;6.80;99.90;;;;;;4782565;29;20055;-65
2022/01/28 12:00:28;;;;;;;27.17;4.45;;;6.90;99.90;;;;;;4783742;29;20489;-65
2022/01/28 12:02:54;;;;;;;26.08;4.97;;;6.90;99.90;;;;;;4780283;29;20300;-65
2022/01/28 12:05:29;;;;;;;24.25;5.15;;;6.80;99.90;;;;;;4780964;29;20054;-65
2022/01/28 12:08:03;;;;;;;27.90;5.22;;;6.80;99.90;;;;;;4783657;29;20039;-65
2022/01/28 12:10:31;;;;;;;27.65;5.53;;;6.80;99.90;;;;;;4781225;29;20439;-65
2022/01/28 12:13:00;;;;;;;28.10;5.30;;;6.80;99.90;;;;;;4779569;29;20054;-65
2022/01/28 12:15:29;;;;;;;25.25;5.53;;;6.80;99.90;;;;;;4781307;29;20471;-65
2022/01/28 12:18:24;;;;;;;25.58;4.25;;;6.80;99.90;;;;;;4783159;29;20075;-65
2022/01/28 12:20:52;;;;;;;19.50;3.70;;;6.80;99.90;;;;;;4769428;29;20059;-65
2022/01/28 12:23:18;;;;;;;34.20;4.18;;;6.80;99.90;;;;;;4780602;29;20120;-66
2022/01/28 12:25:44;;;;;;;28.35;3.88;;;6.80;99.90;;;;;;4781445;29;20047;-66
2022/01/28 12:28:32;;;;;;;20.83;3.25;;;6.80;99.90;;;;;;4784145;29;20066;-65
2022/01/28 12:31:04;;;;;;;22.55;3.60;;;6.80;99.90;;;;;;4772809;29;20074;-65
2022/01/28 12:33:38;;;;;;;22.30;3.80;;;6.80;99.90;;;;;;4780870;29;20116;-66
2022/01/28 12:36:12;;;;;;;24.17;3.58;;;6.80;99.90;;;;;;4777063;29;21706;-66
2022/01/28 12:38:55;;;;;;;23.27;4.18;;;6.70;99.90;;;;;;4777793;29;20055;-66
2022/01/28 12:41:23;;;;;;;18.08;3.67;;;6.70;99.90;;;;;;4782521;29;20146;-66
2022/01/28 12:43:49;;;;;;;25.98;3.95;;;6.70;99.90;;;;;;4783110;29;20047;-66
2022/01/28 12:46:15;;;;;;;14.45;3.05;;;6.80;99.90;;;;;;4781714;29;20040;-66
2022/01/28 12:48:49;;;;;;;21.83;3.67;;;6.80;99.90;;;;;;4780132;29;20047;-66
2022/01/28 12:51:16;;;;;;;24.27;3.38;;;6.80;99.90;;;;;;4781771;29;20043;-66
2022/01/28 12:53:48;;;;;;;16.17;2.72;;;6.90;99.90;;;;;;4781705;29;20059;-66
2022/01/28 12:56:17;;;;;;;21.88;3.10;;;7.20;99.90;;;;;;4783872;29;20047;-66
2022/01/28 12:58:51;;;;;;;21.73;3.58;;;6.80;99.90;;;;;;4784696;29;20142;-66
2022/01/28 13:01:19;;;;;;;17.00;3.25;;;6.90;99.90;;;;;;4784151;29;20181;-66
2022/01/28 13:09:24;;;;;;;19.70;3.20;;;6.90;99.90;;;;;;4785397;29;20534;-66
2022/01/28 13:11:56;;;;;;;24.38;4.10;;;6.90;99.90;;;;;;4784265;29;20059;-66
2022/01/28 13:14:33;;;;;;;17.33;3.10;;;6.90;99.90;;;;;;4784806;29;20463;-66
2022/01/28 13:17:03;;;;;;;21.00;3.90;;;6.80;99.90;;;;;;4785431;29;20508;-66
2022/01/28 13:19:29;;;;;;;20.05;3.38;;;6.90;99.90;;;;;;4784039;29;20134;-67
2022/01/28 13:21:55;;;;;;;23.92;3.30;;;6.90;99.90;;;;;;4784452;29;20126;-66
2022/01/28 13:24:24;;;;;;;25.05;3.55;;;6.80;99.90;;;;;;4783978;29;20152;-66
2022/01/28 13:27:07;;;;;;;18.55;3.22;;;6.90;99.90;;;;;;4785444;29;20047;-66
2022/01/28 13:29:49;;;;;;;18.95;3.83;;;6.80;99.90;;;;;;4786005;29;20051;-66
2022/01/28 13:32:28;;;;;;;21.80;3.85;;;6.90;99.90;;;;;;4784889;29;20062;-66
2022/01/28 13:34:56;;;;;;;22.63;3.88;;;6.80;99.90;;;;;;4785147;29;20058;-66
2022/01/28 13:37:46;;;;;;;20.23;3.95;;;6.80;99.90;;;;;;4784580;29;20066;-66
2022/01/28 13:40:18;;;;;;;17.27;3.85;;;6.80;99.90;;;;;;4785393;29;20134;-66
2022/01/28 13:43:07;;;;;;;25.65;3.63;;;6.80;99.90;;;;;;4783812;29;20092;-67
2022/01/28 13:45:36;;;;;;;18.70;2.90;;;6.80;99.90;;;;;;4784921;29;20062;-67
2022/01/28 13:48:07;;;;;;;18.30;3.13;;;6.80;99.90;;;;;;4783828;29;20054;-67
2022/01/28 13:50:37;;;;;;;18.42;2.60;;;6.80;99.90;;;;;;4784096;29;20059;-67
2022/01/28 13:56:12;;;;;;;21.13;3.38;;;6.80;99.90;;;;;;4783271;29;20176;-67
2022/01/28 13:58:52;;;;;;;17.30;3.33;;;6.80;99.90;;;;;;4783936;29;20062;-67
2022/01/28 14:01:19;;;;;;;18.40;3.05;;;7.10;99.90;;;;;;4783676;29;20078;-67
2022/01/28 14:03:52;;;;;;;16.55;3.53;;;6.90;99.90;;;;;;4784629;29;20062;-67
2022/01/28 14:06:23;;;;;;;13.95;2.40;;;6.90;99.90;;;;;;4784354;29;20059;-67
2022/01/28 14:08:53;;;;;;;14.50;2.88;;;6.90;99.90;;;;;;4785659;29;20047;-67
2022/01/28 14:11:33;;;;;;;22.77;2.78;;;7.20;99.90;;;;;;4785238;29;20488;-67
2022/01/28 14:14:05;;;;;;;16.20;3.03;;;7.00;99.90;;;;;;4785083;29;20055;-67
2022/01/28 14:16:30;;;;;;;18.45;2.90;;;7.10;99.90;;;;;;4784613;29;20067;-67
2022/01/28 14:18:56;;;;;;;16.60;2.88;;;7.10;99.90;;;;;;4784221;29;20062;-67
2022/01/28 14:21:22;;;;;;;13.48;2.60;;;7.40;99.90;;;;;;4783246;29;20074;-67
2022/01/28 14:23:47;;;;;;;15.93;2.33;;;7.20;99.90;;;;;;4782978;29;20043;-67
2022/01/28 14:26:14;;;;;;;12.52;2.33;;;7.20;99.90;;;;;;4767999;29;20058;-67
2022/01/28 14:29:09;;;;;;;19.05;2.50;;;7.20;99.90;;;;;;4782434;29;20060;-67
2022/01/28 14:31:25;;;;;;;12.68;2.35;;;7.20;99.90;;;;;;4784615;29;20111;-67
2022/01/28 14:33:52;;;;;;;19.27;3.30;;;7.20;99.90;;;;;;4781883;29;20044;-67